Terminal Aerodrome Forecast
Issued by NWS Louisville, KY

Home | Current Version | Previous Version | Text Only | Print | Product List | Glossary On
Versions: 1 2 3 4 5 6 7 8 9 10 11 12 13 14 15 16 17 18 19 20
392
FTUS43 KLMK 280726 AAA
TAFBWG
TAF AMD
KBWG 280726Z 2807/2906 VRB03KT 6SM BR BKN020
      TEMPO 2807/2810 1/2SM FG FEW002
     FM281000 30003KT 2SM BR OVC009
     FM281400 31004KT P6SM OVC016
     FM281800 32005KT P6SM OVC024
     FM282100 35003KT P6SM BKN040
     FM290200 03003KT P6SM OVC023=

USA.gov is the U.S. government's official web portal to all federal, state and local government web resources and services.